Pagrindinis puslapis
METAR-TAF:

METAR-TAF

Oro uostai :

Bender Mahšahras, Iranas

platuma: 30-33-23N, ilguma: 049-09-07E, Aukštis: 2 m

Dabartinis oras

Ataskaita buvo paskelbta 58 minutes, ne 07:00 UTC
Vėjas 8 kt iš Vakarų/Pietvakarių
Temperatūra 37°C
Drėgmė 27%
Slėgis 1005 hPa
Matomumas 10 km arba daugiau
nėra debesų žemiau 1500 m ir nėra kamuolinių lietaus debesų

METAR: OIAM 240700Z 24008KT CAVOK 37/15 Q1005

Laikas: 12:28 (07:58 UTC)


TAF: trūkstamas

Orai ataskaitas ir orų prognozės (METAR, TAF).

turimą stotys yra geltonos ir raudonos taškus žemėlapyje.

Perkelti pele per norėdami pamatyti stoties vardą.

Tada spustelėkite, norėdami matyti oro stebėjimo ir prognozės.

Norėdami pakeisti žemėlapį: spustelėkite ant žalios mygtukų su juodo kryžiaus žemyn,; žalią mygtuką su brūkšneliu, jei norite nutolinti; arba žalių rodyklių gretimoms žemėlapius.


METAR-TAF: